Kaw City, OK (74641)

7:05 AM CST on February 07, 2016 (GMT -0600)
KOKKAWCI2 | | Change Station
CLOSE
Current Station
Personal Weather Station
Location: Kaw City, OK
Elevation: 1127 ft
Nearby Weather Stations

Elev 1127 ft 36.76 °N, 96.87 °W | Updated 4 minutes ago

Clear
Clear
36.5 °F
Feels Like 33 °F
N
4.0
Wind Variable Wind from SSW
Gusts 8.3 mph

Today
High -- | Low -- °F
--% Chance of Precip.
Yesterday
High -- | Low -- °F
Precip. -- in
Pressure 30.13 in
Visibility 10.0 miles
Clouds Clear
Windchill 33 °F
Dew Point 30 °F
Humidity 77%
Rainfall 0.00 in
Snow Depth Not available.
7:24 AM 5:59 PM
Waning Crescent, 2% visible
METAR KPNC 071253Z AUTO 21007KT 10SM CLR 01/M03 A3012 RMK AO2 SLP202 T00111033 TSNO
Pressure 30.13 in
Visibility 10.0 miles
Clouds Clear
Windchill 33 °F
Dew Point 30 °F
Humidity 77%
Rainfall 0.00 in
Snow Depth Not available.
7:24 AM 5:59 PM
Waning Crescent, 2% visible
METAR KPNC 071253Z AUTO 21007KT 10SM CLR 01/M03 A3012 RMK AO2 SLP202 T00111033 TSNO

10-Day Weather Forecast

Almanac

Astronomy

Feb. 07, 2016 Rise Set
Actual Time
Civil Twilight
Nautical Twilight
Astronomical Twilight
Moon
Length of Visible Light
Length of Day
Tomorrow will be .
, % of the Moon is Illuminated

Today's Extremes

State Highs State Lows

Community

WunderPhotos

Upload Photos

1,891,189 photos uploaded!

WunderBlog® & News

Nearby

Air Quality

  Air Quality AQ Index Pollutant
Not available.

Snow Depth

Station Depth Elevation

Earthquake Activity

City Distance Mag. Time & Date
Minimum magnitude displayed is 2.5.

Coastal Water Temperatures

Place Temperature

Stations

Nearby Weather Stations

Station Location Temp. Windchill Dew Point Humidity Wind Precip. Elev Updated Type
                   

Watches & Warnings

There are currently no watches in effect.